OIMS

Sabzevar Airport

Airport
ICAO code
OIMS
IATA Code
AFZ
Summary
ICAO Region
MID
ICAO Territory
Location

Sabzevar, Razavi Khorasan Province

Serving
Sabzevar
Elevation
3010 ft
Coordinates
36° 10' 16" N , 57° 36' 12" E
KCC
Metar
Observation
OIMS 061400Z 09008KT 9999 FEW035 05/00 Q1025
Station
Sabzevar
Date/Time
2022-12-06 14:00:00
Wind direction
90°
Wind speed
08 kts
Lowest cloud amount
few clouds
Temperature
5°C
Dew point
0°C
Humidity
70%
QNH
1025 hPa
Weather condition
n/a

Airport located 7km south west of the city of Sabzevar in Iran.

Climatology

Cold semi-arid climate (Köppen climate classification Bsk).

Runways

Designator Length Width Surface Rops
9/27 3178 45 ASP No/No

Airport map

Aerial View

SKYbrary Partners:

Safety knowledge contributed by: